Archival Weather

Fukuoka

Fukuoka, Japan (RJFF)

Report from: Tuesday, August 16, 2022 1:00 PM JST
Current time: Sunday, November 27, 2022 6:25 PM JST

Current weather
Weather history
Weather forecast

Present weatherLight rain showers, light thunderstorm with rain
Temperature30.0°C (86.0°F)
Heat index38.9°C (101.9°F)
Dew point27.0°C (80.6°F)
Winds 4 kts (2.1 m/s, 4.6 mph) Vrb
Winds variableWinds variable from East (100°) to South (180°)
Visibility6.2 mi. (10 km)
Clouds Few clouds 1,000 ft. (305 m)
Scattered clouds 2,000 ft. (610 m)
Few clouds with towering cumulus 2,500 ft. (762 m)
Ceiling: Broken clouds 4,000 ft. (1,219 m)
Altimeter29.71 in.Hg (1006 mB)
Relative humidity84 %
Density altitude2,437 ft. (743 m)
Flight conditions Visual Meteorological Conditions
Raw dataRJFF 160400Z 14004KT 100V180 9999 -SHRA FEW010 SCT020 FEW025TCU BKN040 30/27 Q1006 BECMG 19014KT TEMPO 4000 -TSRA BR
An error has occurred. This application may no longer respond until reloaded. Reload 🗙